createdAt,value
2022-09-15T00:01:06.018Z,0.70
2022-09-15T00:03:32.980Z,0.70
2022-09-15T00:05:59.589Z,0.68
2022-09-15T00:08:26.467Z,0.63
2022-09-15T00:11:27.433Z,0.60
2022-09-15T00:13:56.393Z,0.82
2022-09-15T00:16:25.406Z,0.88
2022-09-15T00:18:52.941Z,1.05
2022-09-15T00:21:24.675Z,1.13
2022-09-15T00:23:51.642Z,1.27
2022-09-15T00:26:23.652Z,1.20
2022-09-15T00:28:51.680Z,1.10
2022-09-15T00:31:26.033Z,1.20
2022-09-15T00:33:56.638Z,1.05
2022-09-15T00:36:25.593Z,1.23
2022-09-15T00:38:52.974Z,0.88
2022-09-15T00:41:22.969Z,0.80
2022-09-15T00:43:58.185Z,0.60
2022-09-15T00:46:35.489Z,0.60
2022-09-15T00:49:15.897Z,0.60
2022-09-15T00:51:58.350Z,0.60
2022-09-15T00:54:43.016Z,0.70
2022-09-15T00:57:26.885Z,0.73
2022-09-15T00:59:57.077Z,1.30
2022-09-15T01:02:30.534Z,1.50
2022-09-15T01:05:00.869Z,1.50
2022-09-15T01:07:38.749Z,2.10
2022-09-15T01:10:15.243Z,3.75
2022-09-15T01:12:42.849Z,3.88
2022-09-15T01:15:09.643Z,4.10
2022-09-15T01:18:07.974Z,5.38
2022-09-15T01:20:49.790Z,5.13
2022-09-15T01:23:42.601Z,5.22
2022-09-15T01:26:46.945Z,5.88
2022-09-15T01:29:41.172Z,6.57
2022-09-15T01:33:04.394Z,7.75
2022-09-15T01:36:00.374Z,6.95
2022-09-15T01:38:56.664Z,6.68
2022-09-15T01:41:50.585Z,5.97
2022-09-15T01:44:29.534Z,8.90
2022-09-15T01:47:03.349Z,10.70
2022-09-15T01:49:37.858Z,7.60
2022-09-15T01:52:05.502Z,7.30
2022-09-15T01:54:48.938Z,7.47
2022-09-15T01:57:17.231Z,8.02
2022-09-15T01:59:44.501Z,6.80
2022-09-15T02:02:22.579Z,6.38
2022-09-15T02:04:55.473Z,5.45
2022-09-15T02:07:45.316Z,5.78
2022-09-15T02:10:24.706Z,5.78
2022-09-15T02:13:01.576Z,7.75
2022-09-15T02:15:35.742Z,6.90
2022-09-15T02:18:05.810Z,6.97
2022-09-15T02:20:51.815Z,7.50
2022-09-15T02:23:28.650Z,7.03
2022-09-15T02:26:04.907Z,7.78
2022-09-15T02:28:36.218Z,7.15
2022-09-15T02:31:08.315Z,8.73
2022-09-15T02:33:41.148Z,7.90
2022-09-15T02:36:10.903Z,7.90
2022-09-15T02:38:44.034Z,7.35
2022-09-15T02:41:12.406Z,6.70
2022-09-15T02:43:49.130Z,5.72
2022-09-15T02:46:18.733Z,4.32
2022-09-15T02:48:48.029Z,3.65
2022-09-15T02:51:17.252Z,3.10
2022-09-15T02:53:45.545Z,2.72
2022-09-15T02:56:12.863Z,1.60
2022-09-15T02:58:39.425Z,1.75
2022-09-15T03:01:10.109Z,1.42
2022-09-15T03:03:41.028Z,1.40
2022-09-15T03:06:16.321Z,1.27
2022-09-15T03:08:48.359Z,0.98
2022-09-15T03:11:15.968Z,1.20
2022-09-15T03:13:43.014Z,1.55
2022-09-15T03:16:15.698Z,2.00
2022-09-15T03:18:42.810Z,2.08
2022-09-15T03:21:13.166Z,2.35
2022-09-15T03:23:41.033Z,2.30
2022-09-15T03:26:09.383Z,2.55
2022-09-15T03:28:38.039Z,2.95
2022-09-15T03:31:07.372Z,3.13
2022-09-15T03:33:34.398Z,4.22
2022-09-15T03:36:01.291Z,3.60
2022-09-15T03:38:27.882Z,4.25
2022-09-15T03:41:06.310Z,4.38
2022-09-15T03:43:33.694Z,5.00
2022-09-15T03:46:01.249Z,5.45
2022-09-15T03:48:30.970Z,5.15
2022-09-15T03:50:57.817Z,5.13
2022-09-15T03:53:24.806Z,5.10
2022-09-15T03:55:52.439Z,5.75
2022-09-15T03:58:19.710Z,5.43
2022-09-15T04:00:46.810Z,6.38
2022-09-15T04:03:14.175Z,6.45
2022-09-15T04:05:41.989Z,5.70
2022-09-15T04:08:12.692Z,5.53
2022-09-15T04:10:41.117Z,5.32
2022-09-15T04:13:08.395Z,5.53
2022-09-15T04:15:35.014Z,5.57
2022-09-15T04:18:01.699Z,5.68
2022-09-15T04:20:28.284Z,4.82
2022-09-15T04:22:54.907Z,5.32
2022-09-15T04:25:22.567Z,4.63
2022-09-15T04:27:49.222Z,5.13
2022-09-15T04:30:15.853Z,4.75
2022-09-15T04:32:42.492Z,4.18
2022-09-15T04:35:09.747Z,4.32
2022-09-15T04:37:36.426Z,3.85
2022-09-15T04:40:03.403Z,4.22
2022-09-15T04:42:30.960Z,4.10
2022-09-15T04:44:58.021Z,3.58
2022-09-15T04:47:24.644Z,3.80
2022-09-15T04:49:51.245Z,2.90
2022-09-15T04:52:17.843Z,3.60
2022-09-15T04:54:44.666Z,3.80
2022-09-15T04:57:11.867Z,3.72
2022-09-15T04:59:38.475Z,3.60
2022-09-15T05:02:05.084Z,3.40
2022-09-15T05:04:31.815Z,2.88
2022-09-15T05:06:58.459Z,3.33
2022-09-15T05:09:26.318Z,3.60
2022-09-15T05:11:53.082Z,3.22
2022-09-15T05:14:19.950Z,3.60
2022-09-15T05:16:46.527Z,2.90
2022-09-15T05:19:13.175Z,3.60
2022-09-15T05:21:39.954Z,3.38
2022-09-15T05:24:06.994Z,3.50
2022-09-15T05:26:33.622Z,3.67
2022-09-15T05:29:00.264Z,3.45
2022-09-15T05:31:33.794Z,4.03
2022-09-15T05:34:04.210Z,3.63
2022-09-15T05:36:31.799Z,3.17
2022-09-15T05:38:58.637Z,3.97
2022-09-15T05:41:27.196Z,3.47
2022-09-15T05:43:56.807Z,3.30
2022-09-15T05:46:26.004Z,3.88
2022-09-15T05:48:56.633Z,4.10
2022-09-15T05:51:23.947Z,3.97
2022-09-15T05:53:50.868Z,4.18
2022-09-15T05:56:18.322Z,3.90
2022-09-15T05:58:47.873Z,3.90
2022-09-15T06:01:21.341Z,3.72
2022-09-15T06:03:49.042Z,3.58
2022-09-15T06:06:16.497Z,3.90
2022-09-15T06:08:50.079Z,3.90
2022-09-15T06:11:22.871Z,3.47
2022-09-15T06:13:49.923Z,3.97
2022-09-15T06:16:20.339Z,3.92
2022-09-15T06:18:49.436Z,4.28
2022-09-15T06:21:20.302Z,4.15
2022-09-15T06:23:55.589Z,4.15
2022-09-15T06:26:22.203Z,3.67
2022-09-15T06:28:55.467Z,3.83
2022-09-15T06:31:23.621Z,3.63
2022-09-15T06:33:53.810Z,3.50
2022-09-15T06:36:23.189Z,4.10
2022-09-15T06:38:51.523Z,3.58
2022-09-15T06:41:18.530Z,3.30
2022-09-15T06:43:46.414Z,3.28
2022-09-15T06:46:25.294Z,3.42
2022-09-15T06:48:55.542Z,3.53
2022-09-15T06:51:25.545Z,3.20
2022-09-15T06:53:54.068Z,3.20
2022-09-15T06:56:23.113Z,3.35
2022-09-15T06:58:50.064Z,3.17
2022-09-15T07:01:26.308Z,2.90
2022-09-15T07:03:53.818Z,3.03
2022-09-15T07:06:21.316Z,2.70
2022-09-15T07:08:49.730Z,2.42
2022-09-15T07:11:18.302Z,2.53
2022-09-15T07:13:45.396Z,2.10
2022-09-15T07:16:13.301Z,2.47
2022-09-15T07:18:43.306Z,2.63
2022-09-15T07:21:19.837Z,2.38
2022-09-15T07:23:48.038Z,2.30
2022-09-15T07:26:21.401Z,2.55
2022-09-15T07:28:59.241Z,2.42
2022-09-15T07:31:30.958Z,2.03
2022-09-15T07:33:59.229Z,2.20
2022-09-15T07:36:26.710Z,2.00
2022-09-15T07:38:53.528Z,1.92
2022-09-15T07:41:26.492Z,2.00
2022-09-15T07:43:55.867Z,1.55
2022-09-15T07:46:24.366Z,1.70
2022-09-15T07:48:56.040Z,1.60
2022-09-15T07:51:23.442Z,1.50
2022-09-15T07:53:50.956Z,1.40
2022-09-15T07:56:18.837Z,1.40
2022-09-15T07:58:49.667Z,1.40
2022-09-15T08:01:18.672Z,1.70
2022-09-15T08:03:48.809Z,1.40
2022-09-15T08:06:18.792Z,1.50
2022-09-15T08:08:45.643Z,1.40
2022-09-15T08:11:19.112Z,1.20
2022-09-15T08:13:49.215Z,1.20
2022-09-15T08:16:19.612Z,1.27
2022-09-15T08:18:47.124Z,1.00
2022-09-15T08:21:19.963Z,0.95
2022-09-15T08:23:55.838Z,1.00
2022-09-15T08:26:22.939Z,1.67
2022-09-15T08:28:49.646Z,1.10
2022-09-15T08:31:17.529Z,1.40
2022-09-15T08:33:52.384Z,1.00
2022-09-15T08:36:22.147Z,0.98
2022-09-15T08:38:48.786Z,0.95
2022-09-15T08:41:25.878Z,1.20
2022-09-15T08:44:10.682Z,1.13
2022-09-15T08:47:21.988Z,1.38
2022-09-15T08:49:57.585Z,1.00
2022-09-15T08:52:50.192Z,2.35
2022-09-15T08:55:48.475Z,0.95
2022-09-15T08:58:19.364Z,1.40
2022-09-15T09:01:02.130Z,1.23
2022-09-15T09:03:49.419Z,0.90
2022-09-15T09:06:25.257Z,1.40
2022-09-15T09:09:02.554Z,1.92
2022-09-15T09:12:13.510Z,2.03
2022-09-15T09:15:16.062Z,1.75
2022-09-15T09:18:24.418Z,2.50
2022-09-15T09:21:09.446Z,2.30
2022-09-15T09:24:18.190Z,2.47
2022-09-15T09:26:53.685Z,2.50
2022-09-15T09:29:32.311Z,2.83
2022-09-15T09:31:59.824Z,2.50
2022-09-15T09:34:43.941Z,2.80
2022-09-15T09:37:14.105Z,3.00
2022-09-15T09:39:40.905Z,3.05
2022-09-15T09:42:14.816Z,3.17
2022-09-15T09:44:42.310Z,3.95
2022-09-15T09:47:08.959Z,3.72
2022-09-15T09:49:49.482Z,3.45
2022-09-15T09:52:37.648Z,4.00
2022-09-15T09:55:23.446Z,4.32
2022-09-15T09:58:18.559Z,4.10
2022-09-15T10:00:52.299Z,4.05
2022-09-15T10:03:27.078Z,4.57
2022-09-15T10:06:22.100Z,4.90
2022-09-15T10:09:05.873Z,4.75
2022-09-15T10:11:54.885Z,4.13
2022-09-15T10:14:39.114Z,5.15
2022-09-15T10:17:18.490Z,5.07
2022-09-15T10:19:53.080Z,5.18
2022-09-15T10:24:35.688Z,5.22
2022-09-15T10:27:20.852Z,4.90
2022-09-15T10:29:47.933Z,5.85
2022-09-15T10:32:30.243Z,6.07
2022-09-15T10:35:18.075Z,6.05
2022-09-15T10:38:11.942Z,7.00
2022-09-15T10:41:08.463Z,6.63
2022-09-15T10:44:16.407Z,6.60
2022-09-15T10:47:33.899Z,6.53
2022-09-15T10:50:17.223Z,7.45
2022-09-15T10:53:04.338Z,7.07
2022-09-15T10:55:58.742Z,6.97
2022-09-15T10:58:52.705Z,6.50
2022-09-15T11:01:28.575Z,7.28
2022-09-15T11:04:08.384Z,7.03
2022-09-15T11:07:08.381Z,6.78
2022-09-15T11:10:17.966Z,6.60
2022-09-15T11:13:00.158Z,5.65
2022-09-15T11:16:04.216Z,5.55
2022-09-15T11:18:57.369Z,5.35
2022-09-15T11:21:39.616Z,5.75
2022-09-15T11:24:51.553Z,5.93
2022-09-15T11:27:28.337Z,5.43
2022-09-15T11:30:01.738Z,4.47
2022-09-15T11:32:36.747Z,4.30
2022-09-15T11:35:40.542Z,5.05
2022-09-15T11:38:34.153Z,4.05
2022-09-15T11:41:34.527Z,4.78
2022-09-15T11:44:19.397Z,4.35
2022-09-15T11:47:09.544Z,4.93
2022-09-15T11:50:11.666Z,4.45
2022-09-15T11:53:12.054Z,4.50
2022-09-15T11:55:51.319Z,4.30
2022-09-15T11:58:29.256Z,4.18
2022-09-15T12:01:10.919Z,3.78
2022-09-15T12:03:48.297Z,3.95
2022-09-15T12:06:30.001Z,3.50
2022-09-15T12:09:12.196Z,2.60
2022-09-15T12:11:44.945Z,2.60
2022-09-15T12:14:19.484Z,2.63
2022-09-15T12:16:46.497Z,2.20
2022-09-15T12:19:26.011Z,2.42
2022-09-15T12:22:07.107Z,2.63
2022-09-15T12:24:45.787Z,3.50
2022-09-15T12:27:20.838Z,3.78
2022-09-15T12:29:53.223Z,3.28
2022-09-15T12:32:31.861Z,2.80
2022-09-15T12:35:10.142Z,2.90
2022-09-15T12:37:53.004Z,2.33
2022-09-15T12:40:35.767Z,2.70
2022-09-15T12:43:11.404Z,2.83
2022-09-15T12:45:40.481Z,3.08
2022-09-15T12:48:13.372Z,3.22
2022-09-15T12:50:43.024Z,3.35
2022-09-15T12:53:23.436Z,3.22
2022-09-15T12:56:24.850Z,3.25
2022-09-15T12:58:52.606Z,3.50
2022-09-15T13:01:19.593Z,4.40
2022-09-15T13:03:46.475Z,3.72
2022-09-15T13:06:30.377Z,3.45
2022-09-15T13:09:05.962Z,3.08
2022-09-15T13:11:41.963Z,2.78
2022-09-15T13:14:29.077Z,2.90
2022-09-15T13:17:07.803Z,2.80
2022-09-15T13:19:35.849Z,2.50
2022-09-15T13:22:11.492Z,2.78
2022-09-15T13:25:02.008Z,3.13
2022-09-15T13:27:52.370Z,2.45
2022-09-15T13:30:53.628Z,2.65
2022-09-15T13:40:25.273Z,1.73
2022-09-15T13:43:57.679Z,1.95
2022-09-15T13:46:57.548Z,1.98
2022-09-15T13:49:35.633Z,1.70
2022-09-15T13:52:42.666Z,2.08
2022-09-15T13:55:21.354Z,2.13
2022-09-15T14:00:59.711Z,1.92
2022-09-15T14:04:04.921Z,1.98
2022-09-15T14:06:38.850Z,2.53
2022-09-15T14:09:18.907Z,3.22
2022-09-15T14:11:53.327Z,2.45
2022-09-15T14:14:32.151Z,2.80
2022-09-15T14:16:58.886Z,2.45
2022-09-15T14:19:34.421Z,2.70
2022-09-15T14:22:42.788Z,2.30
2022-09-15T14:25:19.230Z,2.03
2022-09-15T14:27:52.534Z,2.45
2022-09-15T14:30:31.850Z,2.53
2022-09-15T14:33:02.744Z,2.25
2022-09-15T14:35:37.806Z,3.08
2022-09-15T14:38:04.615Z,1.85
2022-09-15T14:40:41.157Z,2.50
2022-09-15T14:43:31.047Z,2.25
2022-09-15T14:46:11.085Z,1.90
2022-09-15T14:48:38.122Z,1.98
2022-09-15T14:51:24.417Z,2.30
2022-09-15T14:53:55.572Z,2.10
2022-09-15T14:56:30.861Z,2.35
2022-09-15T14:59:08.799Z,2.05
2022-09-15T15:01:40.432Z,2.15
2022-09-15T15:04:25.678Z,2.40
2022-09-15T15:07:01.686Z,2.10
2022-09-15T15:10:02.088Z,2.20
2022-09-15T15:12:40.576Z,2.22
2022-09-15T15:15:11.052Z,2.00
2022-09-15T15:17:45.116Z,2.05
2022-09-15T15:20:11.636Z,2.45
2022-09-15T15:22:40.172Z,2.20
2022-09-15T15:25:27.487Z,2.50
2022-09-15T15:27:56.433Z,2.10
2022-09-15T15:30:31.954Z,2.60
2022-09-15T15:33:05.688Z,2.35
2022-09-15T15:35:35.516Z,2.38
2022-09-15T15:38:16.555Z,2.30
2022-09-15T15:40:44.784Z,2.42
2022-09-15T15:43:24.435Z,2.15
2022-09-15T15:45:58.308Z,2.65
2022-09-15T15:48:26.457Z,2.20
2022-09-15T15:50:53.378Z,1.98
2022-09-15T15:53:21.212Z,2.25
2022-09-15T15:55:48.016Z,1.83
2022-09-15T15:58:15.736Z,2.30
2022-09-15T16:00:51.503Z,2.40
2022-09-15T16:03:20.164Z,2.40
2022-09-15T16:05:58.948Z,1.80
2022-09-15T16:08:39.577Z,1.98
2022-09-15T16:11:10.045Z,1.95
2022-09-15T16:13:36.709Z,2.00
2022-09-15T16:16:17.129Z,2.08
2022-09-15T16:18:43.898Z,2.35
2022-09-15T16:21:27.793Z,2.08
2022-09-15T16:23:54.377Z,2.15
2022-09-15T16:26:24.270Z,2.20
2022-09-15T16:28:51.198Z,2.03
2022-09-15T16:31:17.805Z,2.28
2022-09-15T16:33:44.597Z,2.30
2022-09-15T16:36:15.334Z,2.20
2022-09-15T16:38:42.839Z,1.85
2022-09-15T16:41:17.702Z,2.03
2022-09-15T16:43:45.765Z,2.30
2022-09-15T16:46:13.913Z,2.50
2022-09-15T16:48:42.750Z,1.90
2022-09-15T16:51:26.716Z,1.80
2022-09-15T16:53:54.038Z,1.77
2022-09-15T16:56:20.638Z,1.77
2022-09-15T16:58:47.567Z,2.00
2022-09-15T17:01:19.243Z,2.35
2022-09-15T17:03:46.331Z,2.13
2022-09-15T17:06:16.700Z,2.00
2022-09-15T17:08:44.024Z,2.45
2022-09-15T17:11:17.213Z,2.30
2022-09-15T17:13:44.951Z,1.90
2022-09-15T17:16:14.749Z,1.95
2022-09-15T17:18:41.474Z,2.78
2022-09-15T17:21:15.013Z,2.63
2022-09-15T17:23:46.414Z,2.28
2022-09-15T17:26:17.962Z,2.08
2022-09-15T17:28:44.697Z,2.47
2022-09-15T17:31:23.231Z,1.80
2022-09-15T17:33:51.249Z,2.00
2022-09-15T17:36:18.956Z,1.90
2022-09-15T17:38:45.893Z,1.95
2022-09-15T17:41:19.228Z,2.53
2022-09-15T17:43:46.689Z,1.80
2022-09-15T17:46:13.783Z,1.90
2022-09-15T17:48:40.511Z,1.65
2022-09-15T17:51:09.906Z,1.73
2022-09-15T17:53:36.994Z,1.80
2022-09-15T17:56:03.625Z,1.60
2022-09-15T17:58:31.725Z,1.92
2022-09-15T18:00:59.222Z,1.77
2022-09-15T18:03:34.723Z,1.80
2022-09-15T18:06:06.287Z,1.40
2022-09-15T18:08:34.185Z,1.98
2022-09-15T18:11:01.506Z,1.83
2022-09-15T18:13:32.189Z,1.42
2022-09-15T18:16:05.420Z,1.60
2022-09-15T18:18:32.293Z,1.25
2022-09-15T18:20:59.018Z,1.25
2022-09-15T18:23:29.270Z,1.50
2022-09-15T18:25:56.506Z,1.50
2022-09-15T18:28:23.188Z,1.30
2022-09-15T18:30:51.637Z,1.13
2022-09-15T18:33:24.265Z,1.38
2022-09-15T18:35:55.453Z,1.20
2022-09-15T18:38:22.634Z,1.70
2022-09-15T18:40:53.986Z,1.25
2022-09-15T18:43:22.122Z,1.10
2022-09-15T18:45:49.423Z,0.93
2022-09-15T18:48:16.351Z,1.38
2022-09-15T18:50:44.731Z,1.30
2022-09-15T18:53:11.873Z,1.20
2022-09-15T18:55:41.955Z,1.30
2022-09-15T18:58:09.519Z,1.30
2022-09-15T19:00:37.902Z,1.13
2022-09-15T19:03:08.062Z,1.25
2022-09-15T19:05:35.267Z,1.40
2022-09-15T19:08:03.485Z,1.30
2022-09-15T19:10:30.198Z,1.20
2022-09-15T19:12:56.863Z,1.67
2022-09-15T19:15:23.886Z,1.40
2022-09-15T19:17:51.568Z,1.25
2022-09-15T19:20:18.406Z,1.20
2022-09-15T19:22:45.938Z,1.58
2022-09-15T19:25:13.358Z,1.35
2022-09-15T19:27:41.154Z,1.17
2022-09-15T19:30:09.903Z,1.33
2022-09-15T19:32:38.195Z,1.63
2022-09-15T19:35:06.331Z,1.17
2022-09-15T19:37:40.286Z,1.50
2022-09-15T19:40:11.520Z,1.65
2022-09-15T19:42:40.183Z,1.20
2022-09-15T19:45:09.599Z,1.58
2022-09-15T19:47:38.034Z,1.40
2022-09-15T19:50:07.308Z,1.20
2022-09-15T19:52:34.030Z,1.67
2022-09-15T19:55:00.731Z,1.48
2022-09-15T19:57:27.454Z,1.85
2022-09-15T19:59:54.088Z,1.95
2022-09-15T20:02:20.748Z,1.95
2022-09-15T20:04:49.753Z,1.85
2022-09-15T20:07:16.474Z,1.83
2022-09-15T20:09:43.216Z,1.83
2022-09-15T20:12:09.982Z,1.92
2022-09-15T20:14:36.762Z,1.70
2022-09-15T20:17:04.024Z,1.73
2022-09-15T20:19:30.680Z,1.40
2022-09-15T20:21:57.301Z,1.30
2022-09-15T20:24:24.520Z,1.52
2022-09-15T20:26:51.633Z,1.70
2022-09-15T20:29:19.162Z,1.73
2022-09-15T20:31:46.597Z,1.70
2022-09-15T20:34:13.804Z,1.40
2022-09-15T20:36:41.089Z,1.65
2022-09-15T20:39:12.799Z,1.83
2022-09-15T20:41:42.069Z,1.40
2022-09-15T20:44:09.263Z,1.50
2022-09-15T20:46:36.212Z,1.73
2022-09-15T20:49:04.209Z,1.60
2022-09-15T20:51:32.293Z,1.15
2022-09-15T20:54:01.064Z,1.70
2022-09-15T20:56:29.658Z,1.30
2022-09-15T20:58:59.080Z,1.23
2022-09-15T21:01:34.494Z,1.60
2022-09-15T21:04:01.520Z,1.52
2022-09-15T21:06:28.798Z,1.60
2022-09-15T21:08:56.570Z,1.42
2022-09-15T21:11:25.189Z,1.40
2022-09-15T21:13:52.344Z,1.35
2022-09-15T21:16:26.098Z,1.55
2022-09-15T21:18:53.284Z,1.52
2022-09-15T21:21:23.588Z,1.27
2022-09-15T21:23:58.487Z,1.40
2022-09-15T21:26:28.520Z,1.55
2022-09-15T21:28:56.291Z,1.35
2022-09-15T21:31:31.759Z,1.52
2022-09-15T21:33:59.331Z,1.67
2022-09-15T21:36:30.219Z,1.60
2022-09-15T21:38:58.676Z,1.13
2022-09-15T21:41:32.111Z,1.52
2022-09-15T21:44:00.504Z,1.33
2022-09-15T21:46:30.411Z,1.40
2022-09-15T21:48:59.635Z,1.20
2022-09-15T21:51:28.888Z,1.30
2022-09-15T21:53:58.336Z,1.40
2022-09-15T21:56:27.507Z,1.42
2022-09-15T21:58:54.482Z,1.35
2022-09-15T22:01:25.552Z,1.13
2022-09-15T22:03:55.675Z,1.42
2022-09-15T22:06:31.360Z,1.85
2022-09-15T22:09:00.407Z,1.45
2022-09-15T22:11:27.548Z,1.63
2022-09-15T22:13:54.406Z,1.55
2022-09-15T22:16:24.538Z,1.63
2022-09-15T22:18:51.952Z,1.20
2022-09-15T22:21:27.839Z,1.50
2022-09-15T22:23:57.293Z,1.50
2022-09-15T22:26:27.416Z,1.40
2022-09-15T22:28:55.366Z,1.33
2022-09-15T22:31:23.770Z,1.33
2022-09-15T22:33:50.834Z,1.27
2022-09-15T22:36:25.121Z,1.23
2022-09-15T22:38:55.582Z,1.25
2022-09-15T22:41:25.646Z,1.50
2022-09-15T22:43:53.030Z,1.40
2022-09-15T22:46:20.374Z,1.20
2022-09-15T22:48:47.432Z,1.13
2022-09-15T22:51:14.889Z,1.13
2022-09-15T22:53:42.113Z,1.08
2022-09-15T22:56:23.102Z,1.20
2022-09-15T22:58:50.263Z,1.23
2022-09-15T23:01:26.006Z,1.00
2022-09-15T23:03:55.962Z,1.77
2022-09-15T23:06:24.029Z,1.30
2022-09-15T23:08:53.496Z,1.05
2022-09-15T23:11:21.217Z,1.30
2022-09-15T23:13:48.509Z,1.00
2022-09-15T23:16:15.493Z,1.38
2022-09-15T23:18:42.796Z,1.85
2022-09-15T23:21:11.250Z,1.33
2022-09-15T23:23:40.735Z,1.30
2022-09-15T23:26:11.289Z,1.50
2022-09-15T23:28:39.065Z,1.30
2022-09-15T23:31:06.943Z,1.17
2022-09-15T23:33:40.483Z,1.60
2022-09-15T23:36:11.049Z,1.40
2022-09-15T23:38:39.852Z,1.38
2022-09-15T23:41:08.020Z,1.67
2022-09-15T23:43:35.242Z,1.50
2022-09-15T23:46:02.504Z,1.30
2022-09-15T23:48:31.508Z,1.50
2022-09-15T23:50:59.280Z,1.60
2022-09-15T23:53:30.443Z,1.20
2022-09-15T23:55:57.206Z,1.30
2022-09-15T23:58:24.563Z,1.48
